Rosario del Tala, Argentina
Current Conditions -  °F | °C
As of 12:00 PM on Thursday 23 Oct 2014 (Local Time) from SAAR Reporting Station
Clear Clear  
Wind Chill: 31°   Ceiling: Unl
Heat Index: 31°   Visibility: 6mi
Dew Point: 17°   Wind: 7mph
Humidity: 43%   Direction: 50°NE
Pressure: 29.97"   Gusts: NA
Location:  32.3°S, 59.15°W
Report Text: SAAR 231500Z 05006KT 9000 NSC 31/17 Q1015
Loading
Personal Weather Stations






























Interactive Weather Map
Tropical Storm Tracking
New forecast layout! Learn more

10-Day Weather Forecast

Advertisements
Track Severe Weather on mobile